createdAt,value
2023-01-08T00:01:59.544Z,0.70
2023-01-08T00:04:30.251Z,0.70
2023-01-08T00:06:58.605Z,0.60
2023-01-08T00:09:26.793Z,0.60
2023-01-08T00:11:54.970Z,0.60
2023-01-08T00:14:25.834Z,0.60
2023-01-08T00:16:54.267Z,0.60
2023-01-08T00:19:22.455Z,0.70
2023-01-08T00:21:50.585Z,0.70
2023-01-08T00:24:18.977Z,0.70
2023-01-08T00:26:48.217Z,0.70
2023-01-08T00:29:16.368Z,0.70
2023-01-08T00:31:48.634Z,0.70
2023-01-08T00:34:17.060Z,0.70
2023-01-08T00:36:45.192Z,0.80
2023-01-08T00:39:13.296Z,0.70
2023-01-08T00:41:44.341Z,0.70
2023-01-08T00:44:12.684Z,0.70
2023-01-08T00:46:40.881Z,0.70
2023-01-08T00:49:10.434Z,0.80
2023-01-08T00:51:38.695Z,0.80
2023-01-08T00:54:09.063Z,0.80
2023-01-08T00:56:37.363Z,0.80
2023-01-08T00:59:05.628Z,0.80
2023-01-08T01:01:33.954Z,0.80
2023-01-08T01:04:02.191Z,0.80
2023-01-08T01:06:31.956Z,0.70
2023-01-08T01:09:00.368Z,0.80
2023-01-08T01:11:29.297Z,0.80
2023-01-08T01:13:57.931Z,0.80
2023-01-08T01:16:26.551Z,0.80
2023-01-08T01:18:56.668Z,0.80
2023-01-08T01:21:26.118Z,0.80
2023-01-08T01:23:57.185Z,0.80
2023-01-08T01:26:26.113Z,0.80
2023-01-08T01:28:55.174Z,0.80
2023-01-08T01:31:24.300Z,0.80
2023-01-08T01:33:52.800Z,0.80
2023-01-08T01:36:24.188Z,0.90
2023-01-08T01:38:53.707Z,0.90
2023-01-08T01:41:25.827Z,0.90
2023-01-08T01:43:54.412Z,0.90
2023-01-08T01:46:25.548Z,0.90
2023-01-08T01:48:57.950Z,0.90
2023-01-08T01:51:30.483Z,0.90
2023-01-08T01:53:58.894Z,0.80
2023-01-08T01:56:28.876Z,0.90
2023-01-08T01:58:57.275Z,0.90
2023-01-08T02:01:28.364Z,0.80
2023-01-08T02:03:56.799Z,0.90
2023-01-08T02:06:30.442Z,0.90
2023-01-08T02:09:02.699Z,0.90
2023-01-08T02:11:36.029Z,0.90
2023-01-08T02:14:07.842Z,0.90
2023-01-08T02:16:40.476Z,0.90
2023-01-08T02:19:14.163Z,0.90
2023-01-08T02:21:47.920Z,0.90
2023-01-08T02:24:23.368Z,0.90
2023-01-08T02:26:54.734Z,0.90
2023-01-08T02:29:27.891Z,0.90
2023-01-08T02:31:56.577Z,0.90
2023-01-08T02:34:24.927Z,1.00
2023-01-08T02:36:54.270Z,1.00
2023-01-08T02:39:29.402Z,1.00
2023-01-08T02:42:07.811Z,0.90
2023-01-08T02:44:40.377Z,1.00
2023-01-08T02:47:12.375Z,1.00
2023-01-08T02:49:42.205Z,1.00
2023-01-08T02:52:13.387Z,1.00
2023-01-08T02:54:43.539Z,1.00
2023-01-08T02:57:14.376Z,1.00
2023-01-08T02:59:44.893Z,1.00
2023-01-08T03:02:13.331Z,1.00
2023-01-08T03:04:44.538Z,1.00
2023-01-08T03:07:12.650Z,1.00
2023-01-08T03:09:40.955Z,1.00
2023-01-08T03:12:12.471Z,1.00
2023-01-08T03:14:45.353Z,1.00
2023-01-08T03:17:18.444Z,1.00
2023-01-08T03:19:50.310Z,1.00
2023-01-08T03:22:19.403Z,0.90
2023-01-08T03:24:49.424Z,0.90
2023-01-08T03:27:18.836Z,0.90
2023-01-08T03:29:50.566Z,0.90
2023-01-08T03:32:20.269Z,0.90
2023-01-08T03:34:49.716Z,0.90
2023-01-08T03:37:22.091Z,0.90
2023-01-08T03:39:53.731Z,0.90
2023-01-08T03:42:22.800Z,0.90
2023-01-08T03:44:52.602Z,0.90
2023-01-08T03:47:22.064Z,0.90
2023-01-08T03:49:51.522Z,1.00
2023-01-08T03:52:22.892Z,1.00
2023-01-08T03:54:51.055Z,1.00
2023-01-08T03:57:19.253Z,1.00
2023-01-08T03:59:47.948Z,0.90
2023-01-08T04:02:17.994Z,1.00
2023-01-08T04:04:46.279Z,1.00
2023-01-08T04:07:14.634Z,1.00
2023-01-08T04:09:42.937Z,0.90
2023-01-08T04:12:11.084Z,1.00
2023-01-08T04:14:41.993Z,0.90
2023-01-08T04:17:12.500Z,1.00
2023-01-08T04:19:43.845Z,1.00
2023-01-08T04:22:12.030Z,1.00
2023-01-08T04:24:40.275Z,1.00
2023-01-08T04:27:08.535Z,0.90
2023-01-08T04:29:36.669Z,0.90
2023-01-08T04:32:04.887Z,0.90
2023-01-08T04:34:33.182Z,0.90
2023-01-08T04:37:03.273Z,0.80
2023-01-08T04:39:31.576Z,0.90
2023-01-08T04:41:59.865Z,0.80
2023-01-08T04:44:29.895Z,0.80
2023-01-08T04:46:58.055Z,0.80
2023-01-08T04:49:26.209Z,0.80
2023-01-08T04:51:54.673Z,0.80
2023-01-08T04:54:25.743Z,0.90
2023-01-08T04:56:54.268Z,0.90
2023-01-08T04:59:22.451Z,0.90
2023-01-08T05:01:52.535Z,0.90
2023-01-08T05:04:23.995Z,0.90
2023-01-08T05:06:52.074Z,1.00
2023-01-08T05:09:20.276Z,1.00
2023-01-08T05:11:49.999Z,1.00
2023-01-08T05:14:18.202Z,1.00
2023-01-08T05:16:46.390Z,1.00
2023-01-08T05:19:14.900Z,1.10
2023-01-08T05:21:43.173Z,1.10
2023-01-08T05:24:11.275Z,1.20
2023-01-08T05:26:39.371Z,1.10
2023-01-08T05:29:09.124Z,1.20
2023-01-08T05:31:37.381Z,1.20
2023-01-08T05:34:05.571Z,1.10
2023-01-08T05:36:37.976Z,1.20
2023-01-08T05:39:06.289Z,1.20
2023-01-08T05:41:34.658Z,1.20
2023-01-08T05:44:02.839Z,1.20
2023-01-08T05:46:32.477Z,1.20
2023-01-08T05:49:03.385Z,1.30
2023-01-08T05:51:31.550Z,1.30
2023-01-08T05:53:59.857Z,1.30
2023-01-08T05:56:28.004Z,1.30
2023-01-08T05:58:56.322Z,1.30
2023-01-08T06:01:24.743Z,1.30
2023-01-08T06:03:55.951Z,1.30
2023-01-08T06:06:24.409Z,1.30
2023-01-08T06:08:52.574Z,1.40
2023-01-08T06:11:20.837Z,1.40
2023-01-08T06:13:49.143Z,1.40
2023-01-08T06:16:18.547Z,1.40
2023-01-08T06:18:46.746Z,1.40
2023-01-08T06:21:16.395Z,1.40
2023-01-08T06:23:44.702Z,1.40
2023-01-08T06:26:15.940Z,1.40
2023-01-08T06:28:44.075Z,1.40
2023-01-08T06:31:12.265Z,1.40
2023-01-08T06:33:40.809Z,1.40
2023-01-08T06:36:09.524Z,1.50
2023-01-08T06:38:41.681Z,1.40
2023-01-08T06:41:11.287Z,1.50
2023-01-08T06:43:39.649Z,1.50
2023-01-08T06:46:09.032Z,1.50
2023-01-08T06:48:37.516Z,1.50
2023-01-08T06:51:06.139Z,1.50
2023-01-08T06:53:34.509Z,1.50
2023-01-08T06:56:05.436Z,1.50
2023-01-08T06:58:33.610Z,1.50
2023-01-08T07:01:01.788Z,1.60
2023-01-08T07:03:30.270Z,1.60
2023-01-08T07:05:58.460Z,1.60
2023-01-08T07:08:26.642Z,1.60
2023-01-08T07:10:55.294Z,1.60
2023-01-08T07:13:25.078Z,1.50
2023-01-08T07:15:53.401Z,1.60
2023-01-08T07:18:21.571Z,1.60
2023-01-08T07:20:49.714Z,1.60
2023-01-08T07:23:18.040Z,1.60
2023-01-08T07:25:47.627Z,1.60
2023-01-08T07:28:15.763Z,1.60
2023-01-08T07:30:45.426Z,1.70
2023-01-08T07:33:13.746Z,1.60
2023-01-08T07:35:41.899Z,1.60
2023-01-08T07:38:13.159Z,1.60
2023-01-08T07:40:41.289Z,1.60
2023-01-08T07:43:13.031Z,1.70
2023-01-08T07:45:41.607Z,1.60
2023-01-08T07:48:15.815Z,1.70
2023-01-08T07:50:44.534Z,1.70
2023-01-08T07:53:13.780Z,1.70
2023-01-08T07:55:41.905Z,1.70
2023-01-08T07:58:10.430Z,1.70
2023-01-08T08:00:38.589Z,1.80
2023-01-08T08:03:07.474Z,1.80
2023-01-08T08:05:37.080Z,1.70
2023-01-08T08:08:09.055Z,1.80
2023-01-08T08:10:37.308Z,1.70
2023-01-08T08:13:05.445Z,1.70
2023-01-08T08:15:34.106Z,1.80
2023-01-08T08:18:02.406Z,1.80
2023-01-08T08:20:31.086Z,1.80
2023-01-08T08:23:03.555Z,1.80
2023-01-08T08:25:31.953Z,1.80
2023-01-08T08:28:00.739Z,1.80
2023-01-08T08:30:29.477Z,1.90
2023-01-08T08:32:59.759Z,1.90
2023-01-08T08:35:28.001Z,1.80
2023-01-08T08:37:56.437Z,1.90
2023-01-08T08:40:26.505Z,1.90
2023-01-08T08:42:56.583Z,1.90
2023-01-08T08:45:24.706Z,2.00
2023-01-08T08:47:52.884Z,2.00
2023-01-08T08:50:21.353Z,2.00
2023-01-08T08:52:49.858Z,2.00
2023-01-08T08:55:18.421Z,2.00
2023-01-08T08:57:48.414Z,2.00
2023-01-08T09:00:17.211Z,2.00
2023-01-08T09:02:45.710Z,2.00
2023-01-08T09:05:14.240Z,2.10
2023-01-08T09:07:42.468Z,2.10
2023-01-08T09:10:10.690Z,2.10
2023-01-08T09:12:38.955Z,2.10
2023-01-08T09:15:09.372Z,2.10
2023-01-08T09:17:40.774Z,2.10
2023-01-08T09:20:09.513Z,2.20
2023-01-08T09:22:37.703Z,2.20
2023-01-08T09:25:09.082Z,2.30
2023-01-08T09:27:37.204Z,2.20
2023-01-08T09:30:05.898Z,2.30
2023-01-08T09:32:35.434Z,2.20
2023-01-08T09:35:03.756Z,2.30
2023-01-08T09:37:31.870Z,2.30
2023-01-08T09:40:03.327Z,2.30
2023-01-08T09:42:32.258Z,2.40
2023-01-08T09:45:02.026Z,2.40
2023-01-08T09:47:31.026Z,2.40
2023-01-08T09:50:01.755Z,2.40
2023-01-08T09:52:32.829Z,2.40
2023-01-08T09:55:01.410Z,2.50
2023-01-08T09:57:30.134Z,2.50
2023-01-08T09:59:59.623Z,2.40
2023-01-08T10:02:29.881Z,2.50
2023-01-08T10:05:00.284Z,2.50
2023-01-08T10:07:31.339Z,2.60
2023-01-08T10:09:59.507Z,2.50
2023-01-08T10:12:31.569Z,2.60
2023-01-08T10:15:01.363Z,2.50
2023-01-08T10:17:31.913Z,2.50
2023-01-08T10:20:00.143Z,2.60
2023-01-08T10:22:33.381Z,2.60
2023-01-08T10:25:06.770Z,2.60
2023-01-08T10:27:38.636Z,2.60
2023-01-08T10:30:07.784Z,2.60
2023-01-08T10:32:38.031Z,2.70
2023-01-08T10:35:07.391Z,2.70
2023-01-08T10:37:42.424Z,2.70
2023-01-08T10:40:22.177Z,2.70
2023-01-08T10:42:51.365Z,2.80
2023-01-08T10:45:21.532Z,2.80
2023-01-08T10:47:51.413Z,2.80
2023-01-08T10:50:21.213Z,2.80
2023-01-08T10:52:55.092Z,2.80
2023-01-08T10:55:24.826Z,2.80
2023-01-08T10:57:57.308Z,2.80
2023-01-08T11:00:26.712Z,2.80
2023-01-08T11:02:55.294Z,2.90
2023-01-08T11:05:30.843Z,2.90
2023-01-08T11:08:01.258Z,2.90
2023-01-08T11:10:30.096Z,2.90
2023-01-08T11:12:59.642Z,2.90
2023-01-08T11:15:32.622Z,3.00
2023-01-08T11:18:19.022Z,2.90
2023-01-08T11:20:47.727Z,2.90
2023-01-08T11:23:22.176Z,3.00
2023-01-08T11:25:53.586Z,3.10
2023-01-08T11:28:25.506Z,3.00
2023-01-08T11:30:55.866Z,3.00
2023-01-08T11:33:27.011Z,2.90
2023-01-08T11:35:58.083Z,3.00
2023-01-08T11:38:28.356Z,3.00
2023-01-08T11:40:59.852Z,3.10
2023-01-08T11:43:33.513Z,3.00
2023-01-08T11:46:10.623Z,3.00
2023-01-08T11:48:47.652Z,3.10
2023-01-08T11:51:29.642Z,3.10
2023-01-08T11:54:04.666Z,3.10
2023-01-08T11:56:37.774Z,3.10
2023-01-08T11:59:12.675Z,3.10
2023-01-08T12:01:46.045Z,3.10
2023-01-08T12:04:30.254Z,3.10
2023-01-08T12:07:03.898Z,3.10
2023-01-08T12:09:37.508Z,3.10
2023-01-08T12:12:10.307Z,3.10
2023-01-08T12:14:44.397Z,3.10
2023-01-08T12:17:21.733Z,3.10
2023-01-08T12:19:58.675Z,3.20
2023-01-08T12:22:32.394Z,3.10
2023-01-08T12:25:09.045Z,3.10
2023-01-08T12:28:00.426Z,3.10
2023-01-08T12:30:34.485Z,3.10
2023-01-08T12:33:04.529Z,3.20
2023-01-08T12:35:36.812Z,3.20
2023-01-08T12:38:06.562Z,3.20
2023-01-08T12:40:37.417Z,3.20
2023-01-08T12:43:07.882Z,3.20
2023-01-08T12:45:38.425Z,3.20
2023-01-08T12:48:08.299Z,3.20
2023-01-08T12:50:40.542Z,3.30
2023-01-08T12:53:16.182Z,3.20
2023-01-08T12:55:48.835Z,3.20
2023-01-08T12:58:24.248Z,3.20
2023-01-08T13:00:54.468Z,3.20
2023-01-08T13:03:24.991Z,3.30
2023-01-08T13:05:53.390Z,3.30
2023-01-08T13:08:27.569Z,3.30
2023-01-08T13:10:57.279Z,3.30
2023-01-08T13:13:28.238Z,3.30
2023-01-08T13:16:07.220Z,3.20
2023-01-08T13:18:36.023Z,3.20
2023-01-08T13:21:04.900Z,3.20
2023-01-08T13:23:35.089Z,3.30
2023-01-08T13:26:05.446Z,3.20
2023-01-08T13:28:42.474Z,3.10
2023-01-08T13:31:11.717Z,3.20
2023-01-08T13:33:43.352Z,3.20
2023-01-08T13:36:20.998Z,3.20
2023-01-08T13:39:01.104Z,3.20
2023-01-08T13:41:31.447Z,3.20
2023-01-08T13:44:01.303Z,3.30
2023-01-08T13:46:30.174Z,3.30
2023-01-08T13:49:00.998Z,3.30
2023-01-08T13:51:35.114Z,3.30
2023-01-08T13:54:17.250Z,3.30
2023-01-08T13:56:48.843Z,3.30
2023-01-08T13:59:23.598Z,3.30
2023-01-08T14:01:55.023Z,3.30
2023-01-08T14:04:23.744Z,3.30
2023-01-08T14:06:51.927Z,3.30
2023-01-08T14:09:22.270Z,3.30
2023-01-08T14:11:53.732Z,3.30
2023-01-08T14:14:23.250Z,3.30
2023-01-08T14:16:52.262Z,3.30
2023-01-08T14:19:21.822Z,3.30
2023-01-08T14:21:53.594Z,3.30
2023-01-08T14:24:23.702Z,3.40
2023-01-08T14:26:54.762Z,3.30
2023-01-08T14:29:23.565Z,3.30
2023-01-08T14:31:53.159Z,3.30
2023-01-08T14:34:21.840Z,3.30
2023-01-08T14:36:51.846Z,3.30
2023-01-08T14:39:24.008Z,3.30
2023-01-08T14:42:12.105Z,3.20
2023-01-08T14:44:42.465Z,3.30
2023-01-08T14:47:17.656Z,3.30
2023-01-08T14:49:53.471Z,3.30
2023-01-08T14:52:22.134Z,3.30
2023-01-08T14:54:53.115Z,3.20
2023-01-08T14:57:24.296Z,3.30
2023-01-08T14:59:55.352Z,3.30
2023-01-08T15:02:26.944Z,3.20
2023-01-08T15:05:02.505Z,3.30
2023-01-08T15:07:30.889Z,3.30
2023-01-08T15:09:59.558Z,3.30
2023-01-08T15:12:30.757Z,3.30
2023-01-08T15:15:16.611Z,3.30
2023-01-08T15:17:44.968Z,3.20
2023-01-08T15:20:17.792Z,3.30
2023-01-08T15:22:46.272Z,3.30
2023-01-08T15:25:16.960Z,3.20
2023-01-08T15:27:53.334Z,3.20
2023-01-08T15:30:26.429Z,3.20
2023-01-08T15:32:54.850Z,3.20
2023-01-08T15:35:25.933Z,3.20
2023-01-08T15:37:54.042Z,3.30
2023-01-08T15:40:22.222Z,3.30
2023-01-08T15:43:14.534Z,3.30
2023-01-08T15:45:43.650Z,3.20
2023-01-08T15:48:12.181Z,3.20
2023-01-08T15:50:41.213Z,3.20
2023-01-08T15:53:13.931Z,3.30
2023-01-08T15:55:44.377Z,3.20
2023-01-08T15:58:14.289Z,3.20
2023-01-08T16:00:42.891Z,3.20
2023-01-08T16:03:15.091Z,3.20
2023-01-08T16:05:43.505Z,3.20
2023-01-08T16:08:12.237Z,3.20
2023-01-08T16:10:40.369Z,3.30
2023-01-08T16:13:11.687Z,3.30
2023-01-08T16:15:41.762Z,3.20
2023-01-08T16:18:10.134Z,3.20
2023-01-08T16:20:39.008Z,3.20
2023-01-08T16:23:10.350Z,3.20
2023-01-08T16:25:39.950Z,3.30
2023-01-08T16:28:09.873Z,3.20
2023-01-08T16:30:41.466Z,3.20
2023-01-08T16:33:11.089Z,3.20
2023-01-08T16:35:39.402Z,3.20
2023-01-08T16:38:08.430Z,3.20
2023-01-08T16:40:37.569Z,3.20
2023-01-08T16:43:05.760Z,3.20
2023-01-08T16:45:34.125Z,3.20
2023-01-08T16:48:03.134Z,3.20
2023-01-08T16:50:33.629Z,3.20
2023-01-08T16:53:01.752Z,3.20
2023-01-08T16:55:30.027Z,3.20
2023-01-08T16:57:58.291Z,3.20
2023-01-08T17:00:26.430Z,3.20
2023-01-08T17:02:54.870Z,3.30
2023-01-08T17:05:22.974Z,3.20
2023-01-08T17:07:56.783Z,3.20
2023-01-08T17:10:28.451Z,3.20
2023-01-08T17:12:56.754Z,3.20
2023-01-08T17:15:24.971Z,3.20
2023-01-08T17:17:53.257Z,3.20
2023-01-08T17:20:21.643Z,3.20
2023-01-08T17:22:49.809Z,3.20
2023-01-08T17:25:19.480Z,3.20
2023-01-08T17:27:47.888Z,3.10
2023-01-08T17:30:16.085Z,3.20
2023-01-08T17:32:44.337Z,3.10
2023-01-08T17:35:12.621Z,3.10
2023-01-08T17:37:40.802Z,3.10
2023-01-08T17:40:09.662Z,3.10
2023-01-08T17:42:39.483Z,3.10
2023-01-08T17:45:08.333Z,3.10
2023-01-08T17:47:37.582Z,3.10
2023-01-08T17:50:06.425Z,3.10
2023-01-08T17:52:34.623Z,3.10
2023-01-08T17:55:02.927Z,3.10
2023-01-08T17:57:31.781Z,3.00
2023-01-08T18:00:01.556Z,3.00
2023-01-08T18:02:29.816Z,3.00
2023-01-08T18:04:58.707Z,3.00
2023-01-08T18:07:26.855Z,3.00
2023-01-08T18:09:57.133Z,3.00
2023-01-08T18:12:25.307Z,2.90
2023-01-08T18:14:53.510Z,3.00
2023-01-08T18:17:25.196Z,2.90
2023-01-08T18:19:53.386Z,3.00
2023-01-08T18:22:22.487Z,3.00
2023-01-08T18:24:52.655Z,2.90
2023-01-08T18:27:22.052Z,2.90
2023-01-08T18:29:50.386Z,2.90
2023-01-08T18:32:22.398Z,2.90
2023-01-08T18:34:51.925Z,2.90
2023-01-08T18:37:23.280Z,2.90
2023-01-08T18:39:51.642Z,2.90
2023-01-08T18:42:30.382Z,2.90
2023-01-08T18:44:58.875Z,2.90
2023-01-08T18:47:28.924Z,2.90
2023-01-08T18:50:03.250Z,2.90
2023-01-08T18:52:31.784Z,2.90
2023-01-08T18:55:00.190Z,2.90
2023-01-08T18:57:28.500Z,2.90
2023-01-08T18:59:56.802Z,2.90
2023-01-08T19:02:27.320Z,2.90
2023-01-08T19:04:55.644Z,2.90
2023-01-08T19:07:25.781Z,2.90
2023-01-08T19:10:01.738Z,2.90
2023-01-08T19:12:32.166Z,2.90
2023-01-08T19:15:00.374Z,2.90
2023-01-08T19:17:30.727Z,2.90
2023-01-08T19:20:00.190Z,2.90
2023-01-08T19:22:33.080Z,2.90
2023-01-08T19:25:01.380Z,2.90
2023-01-08T19:27:30.067Z,2.90
2023-01-08T19:29:58.320Z,2.90
2023-01-08T19:32:28.417Z,2.90
2023-01-08T19:34:56.583Z,2.90
2023-01-08T19:37:24.865Z,2.90
2023-01-08T19:39:54.764Z,2.90
2023-01-08T19:42:40.261Z,2.90
2023-01-08T19:45:08.638Z,2.90
2023-01-08T19:47:36.834Z,2.90
2023-01-08T19:50:05.314Z,2.90
2023-01-08T19:52:33.700Z,2.90
2023-01-08T19:55:03.378Z,2.90
2023-01-08T19:57:31.597Z,2.90
2023-01-08T19:59:59.838Z,2.90
2023-01-08T20:02:28.136Z,2.90
2023-01-08T20:04:56.430Z,2.90
2023-01-08T20:07:24.794Z,2.90
2023-01-08T20:09:53.068Z,3.00
2023-01-08T20:12:22.740Z,2.90
2023-01-08T20:14:51.016Z,2.90
2023-01-08T20:17:19.703Z,3.00
2023-01-08T20:19:50.099Z,2.90
2023-01-08T20:22:18.677Z,3.00
2023-01-08T20:24:46.986Z,3.00
2023-01-08T20:27:15.626Z,3.00
2023-01-08T20:29:45.317Z,3.10
2023-01-08T20:32:13.491Z,3.00
2023-01-08T20:34:42.347Z,3.00
2023-01-08T20:37:10.636Z,3.10
2023-01-08T20:39:39.077Z,3.00
2023-01-08T20:42:08.570Z,3.10
2023-01-08T20:44:37.056Z,3.00
2023-01-08T20:47:06.824Z,3.00
2023-01-08T20:49:35.374Z,3.10
2023-01-08T20:52:03.783Z,3.10
2023-01-08T20:54:32.037Z,3.10
2023-01-08T20:57:01.098Z,3.10
2023-01-08T20:59:29.659Z,3.00
2023-01-08T21:01:58.074Z,3.00
2023-01-08T21:04:27.774Z,3.10
2023-01-08T21:06:56.103Z,3.00
2023-01-08T21:09:24.582Z,3.10
2023-01-08T21:11:52.678Z,3.10
2023-01-08T21:14:20.985Z,3.10
2023-01-08T21:16:49.072Z,3.10
2023-01-08T21:19:18.346Z,3.10
2023-01-08T21:21:47.996Z,3.10
2023-01-08T21:24:16.297Z,3.10
2023-01-08T21:26:45.918Z,3.10
2023-01-08T21:29:14.844Z,3.10
2023-01-08T21:31:43.385Z,3.10
2023-01-08T21:34:11.914Z,3.00
2023-01-08T21:36:40.363Z,3.10
2023-01-08T21:39:11.596Z,3.00
2023-01-08T21:41:57.088Z,3.00
2023-01-08T21:44:43.323Z,3.10
2023-01-08T21:47:12.489Z,3.10
2023-01-08T21:49:40.914Z,3.10
2023-01-08T21:52:26.792Z,3.10
2023-01-08T21:54:58.321Z,3.00
2023-01-08T21:57:28.185Z,3.10
2023-01-08T21:59:56.845Z,3.10
2023-01-08T22:02:25.209Z,3.10
2023-01-08T22:04:55.602Z,3.10
2023-01-08T22:07:23.796Z,3.00
2023-01-08T22:09:52.042Z,3.00
2023-01-08T22:12:22.917Z,3.10
2023-01-08T22:14:52.943Z,3.10
2023-01-08T22:17:23.560Z,3.10
2023-01-08T22:19:51.782Z,3.10
2023-01-08T22:22:20.242Z,3.00
2023-01-08T22:24:48.602Z,3.00
2023-01-08T22:27:17.217Z,3.10
2023-01-08T22:29:47.545Z,3.10
2023-01-08T22:32:18.475Z,3.10
2023-01-08T22:34:46.817Z,3.00
2023-01-08T22:37:16.938Z,3.10
2023-01-08T22:39:45.347Z,3.10
2023-01-08T22:42:13.488Z,3.10
2023-01-08T22:44:41.619Z,3.00
2023-01-08T22:47:11.347Z,3.10
2023-01-08T22:49:39.481Z,3.00
2023-01-08T22:52:08.710Z,3.00
2023-01-08T22:54:37.048Z,3.00
2023-01-08T22:57:05.391Z,2.90
2023-01-08T22:59:33.619Z,3.00
2023-01-08T23:02:01.970Z,2.90
2023-01-08T23:04:31.638Z,3.00
2023-01-08T23:06:59.944Z,2.90
2023-01-08T23:09:28.089Z,2.90
2023-01-08T23:11:56.306Z,2.90
2023-01-08T23:14:24.509Z,2.90
2023-01-08T23:16:52.692Z,2.90
2023-01-08T23:19:20.980Z,2.90
2023-01-08T23:21:50.705Z,2.80
2023-01-08T23:24:18.909Z,2.80
2023-01-08T23:26:47.029Z,2.80
2023-01-08T23:29:15.357Z,2.70
2023-01-08T23:31:44.383Z,2.80
2023-01-08T23:34:12.842Z,2.70
2023-01-08T23:36:43.025Z,2.70
2023-01-08T23:39:12.767Z,2.60
2023-01-08T23:41:41.147Z,2.60
2023-01-08T23:44:10.115Z,2.60
2023-01-08T23:46:38.596Z,2.50
2023-01-08T23:49:07.273Z,2.50
2023-01-08T23:51:35.595Z,2.50
2023-01-08T23:54:03.890Z,2.50
2023-01-08T23:56:33.452Z,2.50
2023-01-08T23:59:01.926Z,2.40
